sensor_id;sensor_type;location;lat;lon;timestamp;pressure;altitude;pressure_sealevel;temperature;humidity
28626;BME280;18905;42.668;23.364;2023-01-25T00:02:05;96217.59;;;2.02;100.00
28626;BME280;18905;42.668;23.364;2023-01-25T00:04:31;96191.59;;;1.81;100.00
28626;BME280;18905;42.668;23.364;2023-01-25T00:06:56;96183.31;;;1.66;100.00
28626;BME280;18905;42.668;23.364;2023-01-25T00:09:22;96222.50;;;1.93;100.00
28626;BME280;18905;42.668;23.364;2023-01-25T00:11:48;96191.81;;;1.91;100.00
28626;BME280;18905;42.668;23.364;2023-01-25T00:14:14;96222.66;;;1.75;100.00
28626;BME280;18905;42.668;23.364;2023-01-25T00:16:40;96200.91;;;1.67;100.00
28626;BME280;18905;42.668;23.364;2023-01-25T00:19:07;96218.38;;;1.74;100.00
28626;BME280;18905;42.668;23.364;2023-01-25T00:21:33;96191.50;;;1.76;100.00
28626;BME280;18905;42.668;23.364;2023-01-25T00:23:59;96195.06;;;1.81;100.00
28626;BME280;18905;42.668;23.364;2023-01-25T00:26:25;96224.94;;;1.95;100.00
28626;BME280;18905;42.668;23.364;2023-01-25T00:28:52;96189.53;;;1.83;100.00
28626;BME280;18905;42.668;23.364;2023-01-25T00:31:31;96218.19;;;2.04;100.00
28626;BME280;18905;42.668;23.364;2023-01-25T00:34:09;96207.16;;;2.00;100.00
28626;BME280;18905;42.668;23.364;2023-01-25T00:36:54;96210.28;;;2.09;100.00
28626;BME280;18905;42.668;23.364;2023-01-25T00:39:21;96208.25;;;1.88;100.00
28626;BME280;18905;42.668;23.364;2023-01-25T00:41:47;96210.75;;;1.66;100.00
28626;BME280;18905;42.668;23.364;2023-01-25T00:44:12;96187.19;;;1.47;100.00
28626;BME280;18905;42.668;23.364;2023-01-25T00:46:38;96194.91;;;1.60;100.00
28626;BME280;18905;42.668;23.364;2023-01-25T00:49:03;96217.56;;;1.74;100.00
28626;BME280;18905;42.668;23.364;2023-01-25T00:51:29;96191.66;;;1.58;100.00
28626;BME280;18905;42.668;23.364;2023-01-25T00:53:54;96210.53;;;1.68;100.00
28626;BME280;18905;42.668;23.364;2023-01-25T00:56:20;96129.97;;;1.10;100.00
28626;BME280;18905;42.668;23.364;2023-01-25T00:58:45;96187.44;;;1.34;100.00
28626;BME280;18905;42.668;23.364;2023-01-25T01:01:11;96213.22;;;1.45;100.00
28626;BME280;18905;42.668;23.364;2023-01-25T01:03:37;96179.56;;;1.16;100.00
28626;BME280;18905;42.668;23.364;2023-01-25T01:06:07;96216.94;;;1.32;100.00
28626;BME280;18905;42.668;23.364;2023-01-25T01:08:33;96207.34;;;1.20;100.00
28626;BME280;18905;42.668;23.364;2023-01-25T01:11:03;96197.41;;;1.15;100.00
28626;BME280;18905;42.668;23.364;2023-01-25T01:13:29;96199.69;;;1.23;100.00
28626;BME280;18905;42.668;23.364;2023-01-25T01:15:55;96191.72;;;1.23;100.00
28626;BME280;18905;42.668;23.364;2023-01-25T01:18:21;96212.28;;;1.51;100.00
28626;BME280;18905;42.668;23.364;2023-01-25T01:20:51;96194.25;;;1.30;100.00
28626;BME280;18905;42.668;23.364;2023-01-25T01:23:17;96213.34;;;1.50;100.00
28626;BME280;18905;42.668;23.364;2023-01-25T01:25:42;96141.06;;;1.07;100.00
28626;BME280;18905;42.668;23.364;2023-01-25T01:28:08;96186.16;;;1.25;100.00
28626;BME280;18905;42.668;23.364;2023-01-25T01:30:34;96207.44;;;1.36;100.00
28626;BME280;18905;42.668;23.364;2023-01-25T01:33:00;96203.72;;;1.37;100.00
28626;BME280;18905;42.668;23.364;2023-01-25T01:35:27;96202.81;;;1.43;100.00
28626;BME280;18905;42.668;23.364;2023-01-25T01:37:53;96197.59;;;1.48;100.00
28626;BME280;18905;42.668;23.364;2023-01-25T01:40:18;96187.53;;;1.39;100.00
28626;BME280;18905;42.668;23.364;2023-01-25T01:43:04;96202.06;;;1.71;100.00
28626;BME280;18905;42.668;23.364;2023-01-25T01:48:15;96187.09;;;1.81;100.00
28626;BME280;18905;42.668;23.364;2023-01-25T01:50:42;96180.41;;;1.67;100.00
28626;BME280;18905;42.668;23.364;2023-01-25T01:53:08;96174.28;;;1.67;100.00
28626;BME280;18905;42.668;23.364;2023-01-25T01:55:34;96195.44;;;1.73;100.00
28626;BME280;18905;42.668;23.364;2023-01-25T01:58:01;96159.28;;;1.49;100.00
28626;BME280;18905;42.668;23.364;2023-01-25T02:00:38;96188.97;;;1.69;100.00
28626;BME280;18905;42.668;23.364;2023-01-25T02:03:05;96142.75;;;1.47;100.00
28626;BME280;18905;42.668;23.364;2023-01-25T02:05:56;96190.19;;;1.90;100.00
28626;BME280;18905;42.668;23.364;2023-01-25T02:08:25;96192.16;;;1.94;100.00
28626;BME280;18905;42.668;23.364;2023-01-25T02:10:50;96157.00;;;1.69;100.00
28626;BME280;18905;42.668;23.364;2023-01-25T02:13:17;96187.38;;;1.96;100.00
28626;BME280;18905;42.668;23.364;2023-01-25T02:15:49;96196.88;;;2.04;100.00
28626;BME280;18905;42.668;23.364;2023-01-25T02:18:16;96158.16;;;2.01;100.00
28626;BME280;18905;42.668;23.364;2023-01-25T02:20:47;96186.09;;;1.99;100.00
28626;BME280;18905;42.668;23.364;2023-01-25T02:25:52;96188.88;;;2.04;100.00
28626;BME280;18905;42.668;23.364;2023-01-25T02:28:29;96160.50;;;1.98;100.00
28626;BME280;18905;42.668;23.364;2023-01-25T02:30:55;96143.09;;;1.51;100.00
28626;BME280;18905;42.668;23.364;2023-01-25T02:33:25;96191.31;;;1.94;100.00
28626;BME280;18905;42.668;23.364;2023-01-25T02:36:16;96192.34;;;2.04;100.00
28626;BME280;18905;42.668;23.364;2023-01-25T02:38:57;96163.34;;;2.08;100.00
28626;BME280;18905;42.668;23.364;2023-01-25T02:43:51;96179.91;;;1.82;100.00
28626;BME280;18905;42.668;23.364;2023-01-25T02:46:22;96185.06;;;1.72;100.00
28626;BME280;18905;42.668;23.364;2023-01-25T02:48:50;96142.13;;;1.57;100.00
28626;BME280;18905;42.668;23.364;2023-01-25T02:51:15;96162.06;;;1.82;100.00
28626;BME280;18905;42.668;23.364;2023-01-25T02:53:41;96172.44;;;1.95;100.00
28626;BME280;18905;42.668;23.364;2023-01-25T02:56:06;96179.25;;;2.03;100.00
28626;BME280;18905;42.668;23.364;2023-01-25T02:58:33;96146.59;;;1.79;100.00
28626;BME280;18905;42.668;23.364;2023-01-25T03:00:58;96161.81;;;2.12;100.00
28626;BME280;18905;42.668;23.364;2023-01-25T03:03:24;96165.13;;;2.30;100.00
28626;BME280;18905;42.668;23.364;2023-01-25T03:05:49;96180.03;;;2.31;100.00
28626;BME280;18905;42.668;23.364;2023-01-25T03:08:15;96178.78;;;2.50;100.00
28626;BME280;18905;42.668;23.364;2023-01-25T03:10:40;96182.59;;;2.54;100.00
28626;BME280;18905;42.668;23.364;2023-01-25T03:13:06;96157.44;;;2.34;100.00
28626;BME280;18905;42.668;23.364;2023-01-25T03:15:31;96176.94;;;2.51;100.00
28626;BME280;18905;42.668;23.364;2023-01-25T03:17:57;96168.44;;;2.54;100.00
28626;BME280;18905;42.668;23.364;2023-01-25T03:20:23;96160.44;;;2.54;100.00
28626;BME280;18905;42.668;23.364;2023-01-25T03:22:48;96151.63;;;2.37;100.00
28626;BME280;18905;42.668;23.364;2023-01-25T03:25:14;96148.16;;;2.36;100.00
28626;BME280;18905;42.668;23.364;2023-01-25T03:27:39;96176.28;;;2.60;100.00
28626;BME280;18905;42.668;23.364;2023-01-25T03:30:05;96180.97;;;2.70;100.00
28626;BME280;18905;42.668;23.364;2023-01-25T03:32:31;96163.22;;;2.59;100.00
28626;BME280;18905;42.668;23.364;2023-01-25T03:34:56;96118.50;;;2.33;100.00
28626;BME280;18905;42.668;23.364;2023-01-25T03:37:23;96184.19;;;2.72;100.00
28626;BME280;18905;42.668;23.364;2023-01-25T03:39:54;96184.03;;;2.78;100.00
28626;BME280;18905;42.668;23.364;2023-01-25T03:42:20;96159.25;;;2.78;100.00
28626;BME280;18905;42.668;23.364;2023-01-25T03:44:45;96108.75;;;2.55;100.00
28626;BME280;18905;42.668;23.364;2023-01-25T03:47:11;96154.59;;;2.90;100.00
28626;BME280;18905;42.668;23.364;2023-01-25T03:49:36;96173.19;;;3.01;100.00
28626;BME280;18905;42.668;23.364;2023-01-25T03:52:01;96150.09;;;2.90;100.00
28626;BME280;18905;42.668;23.364;2023-01-25T03:54:27;96171.91;;;3.04;100.00
28626;BME280;18905;42.668;23.364;2023-01-25T03:56:52;96151.63;;;2.53;100.00
28626;BME280;18905;42.668;23.364;2023-01-25T03:59:18;96168.19;;;2.55;100.00
28626;BME280;18905;42.668;23.364;2023-01-25T04:01:43;96169.06;;;2.28;100.00
28626;BME280;18905;42.668;23.364;2023-01-25T04:04:09;96120.56;;;1.70;100.00
28626;BME280;18905;42.668;23.364;2023-01-25T04:06:34;96163.63;;;2.06;100.00
28626;BME280;18905;42.668;23.364;2023-01-25T04:08:59;96133.13;;;1.86;100.00
28626;BME280;18905;42.668;23.364;2023-01-25T04:11:25;96131.41;;;1.80;100.00
28626;BME280;18905;42.668;23.364;2023-01-25T04:13:50;96147.78;;;1.72;100.00
28626;BME280;18905;42.668;23.364;2023-01-25T04:16:16;96145.44;;;1.75;100.00
28626;BME280;18905;42.668;23.364;2023-01-25T04:18:41;96109.72;;;1.60;100.00
28626;BME280;18905;42.668;23.364;2023-01-25T04:21:06;96146.69;;;1.84;100.00
28626;BME280;18905;42.668;23.364;2023-01-25T04:23:32;96131.66;;;1.67;100.00
28626;BME280;18905;42.668;23.364;2023-01-25T04:25:59;96156.59;;;1.89;100.00
28626;BME280;18905;42.668;23.364;2023-01-25T04:28:26;96158.63;;;1.82;100.00
28626;BME280;18905;42.668;23.364;2023-01-25T04:30:53;96158.66;;;1.70;100.00
28626;BME280;18905;42.668;23.364;2023-01-25T04:33:19;96138.13;;;1.43;100.00
28626;BME280;18905;42.668;23.364;2023-01-25T04:35:44;96172.44;;;1.67;100.00
28626;BME280;18905;42.668;23.364;2023-01-25T04:38:10;96144.69;;;1.52;100.00
28626;BME280;18905;42.668;23.364;2023-01-25T04:40:36;96180.19;;;1.69;100.00
28626;BME280;18905;42.668;23.364;2023-01-25T04:43:02;96170.47;;;1.74;100.00
28626;BME280;18905;42.668;23.364;2023-01-25T04:45:27;96173.16;;;1.63;100.00
28626;BME280;18905;42.668;23.364;2023-01-25T04:48:06;96166.25;;;1.78;100.00
28626;BME280;18905;42.668;23.364;2023-01-25T04:50:44;96178.19;;;1.76;100.00
28626;BME280;18905;42.668;23.364;2023-01-25T04:53:10;96175.88;;;1.79;100.00
28626;BME280;18905;42.668;23.364;2023-01-25T04:55:36;96165.97;;;1.91;100.00
28626;BME280;18905;42.668;23.364;2023-01-25T04:58:02;96174.59;;;2.10;100.00
28626;BME280;18905;42.668;23.364;2023-01-25T05:00:28;96177.44;;;2.20;100.00
28626;BME280;18905;42.668;23.364;2023-01-25T05:02:55;96120.00;;;1.96;100.00
28626;BME280;18905;42.668;23.364;2023-01-25T05:05:20;96164.13;;;2.20;100.00
28626;BME280;18905;42.668;23.364;2023-01-25T05:07:46;96162.84;;;2.39;100.00
28626;BME280;18905;42.668;23.364;2023-01-25T05:10:11;96143.94;;;2.40;100.00
28626;BME280;18905;42.668;23.364;2023-01-25T05:12:37;96139.69;;;2.56;100.00
28626;BME280;18905;42.668;23.364;2023-01-25T05:15:03;96133.44;;;2.17;100.00
28626;BME280;18905;42.668;23.364;2023-01-25T05:17:29;96171.16;;;2.26;100.00
28626;BME280;18905;42.668;23.364;2023-01-25T05:19:54;96162.69;;;2.01;100.00
28626;BME280;18905;42.668;23.364;2023-01-25T05:22:19;96111.00;;;1.57;100.00
28626;BME280;18905;42.668;23.364;2023-01-25T05:24:46;96125.69;;;1.60;100.00
28626;BME280;18905;42.668;23.364;2023-01-25T05:27:14;96162.16;;;1.87;100.00
28626;BME280;18905;42.668;23.364;2023-01-25T05:29:42;96160.84;;;2.01;100.00
28626;BME280;18905;42.668;23.364;2023-01-25T05:32:10;96149.69;;;2.32;100.00
28626;BME280;18905;42.668;23.364;2023-01-25T05:34:36;96126.91;;;2.91;100.00
28626;BME280;18905;42.668;23.364;2023-01-25T05:37:04;96151.84;;;2.19;100.00
28626;BME280;18905;42.668;23.364;2023-01-25T05:39:29;96164.22;;;2.58;100.00
28626;BME280;18905;42.668;23.364;2023-01-25T05:41:55;96157.13;;;2.30;100.00
28626;BME280;18905;42.668;23.364;2023-01-25T05:44:21;96166.75;;;2.48;100.00
28626;BME280;18905;42.668;23.364;2023-01-25T05:46:47;96167.59;;;2.20;100.00
28626;BME280;18905;42.668;23.364;2023-01-25T05:49:13;96167.34;;;2.22;100.00
28626;BME280;18905;42.668;23.364;2023-01-25T05:51:40;96174.41;;;2.00;100.00
28626;BME280;18905;42.668;23.364;2023-01-25T05:54:06;96162.16;;;1.87;100.00
28626;BME280;18905;42.668;23.364;2023-01-25T05:56:33;96144.09;;;1.89;100.00
28626;BME280;18905;42.668;23.364;2023-01-25T05:59:00;96175.06;;;2.07;100.00
28626;BME280;18905;42.668;23.364;2023-01-25T06:01:26;96172.34;;;2.18;100.00
28626;BME280;18905;42.668;23.364;2023-01-25T06:03:52;96162.06;;;2.10;100.00
28626;BME280;18905;42.668;23.364;2023-01-25T06:06:18;96154.84;;;1.94;100.00
28626;BME280;18905;42.668;23.364;2023-01-25T06:08:44;96173.91;;;2.03;100.00
28626;BME280;18905;42.668;23.364;2023-01-25T06:11:20;96170.41;;;1.86;100.00
28626;BME280;18905;42.668;23.364;2023-01-25T06:13:48;96159.59;;;1.64;100.00
28626;BME280;18905;42.668;23.364;2023-01-25T06:16:14;96148.75;;;1.43;100.00
28626;BME280;18905;42.668;23.364;2023-01-25T06:18:40;96167.47;;;1.59;100.00
28626;BME280;18905;42.668;23.364;2023-01-25T06:21:06;96180.41;;;1.67;100.00
28626;BME280;18905;42.668;23.364;2023-01-25T06:23:31;96169.31;;;1.70;100.00
28626;BME280;18905;42.668;23.364;2023-01-25T06:26:01;96174.75;;;1.64;100.00
28626;BME280;18905;42.668;23.364;2023-01-25T06:28:31;96167.59;;;1.53;100.00
28626;BME280;18905;42.668;23.364;2023-01-25T06:31:09;96123.22;;;1.30;100.00
28626;BME280;18905;42.668;23.364;2023-01-25T06:33:36;96186.34;;;1.58;100.00
28626;BME280;18905;42.668;23.364;2023-01-25T06:36:06;96184.03;;;1.61;100.00
28626;BME280;18905;42.668;23.364;2023-01-25T06:38:32;96134.91;;;1.41;100.00
28626;BME280;18905;42.668;23.364;2023-01-25T06:41:05;96181.28;;;1.56;100.00
28626;BME280;18905;42.668;23.364;2023-01-25T06:43:33;96148.19;;;1.52;100.00
28626;BME280;18905;42.668;23.364;2023-01-25T06:46:03;96159.63;;;1.53;100.00
28626;BME280;18905;42.668;23.364;2023-01-25T06:48:30;96157.44;;;1.50;100.00
28626;BME280;18905;42.668;23.364;2023-01-25T06:51:04;96182.38;;;1.72;100.00
28626;BME280;18905;42.668;23.364;2023-01-25T06:53:32;96162.84;;;1.66;100.00
28626;BME280;18905;42.668;23.364;2023-01-25T06:56:03;96160.88;;;1.62;100.00
28626;BME280;18905;42.668;23.364;2023-01-25T06:58:30;96184.72;;;1.96;100.00
28626;BME280;18905;42.668;23.364;2023-01-25T07:01:20;96186.56;;;2.24;100.00
28626;BME280;18905;42.668;23.364;2023-01-25T07:03:50;96180.38;;;1.79;100.00
28626;BME280;18905;42.668;23.364;2023-01-25T07:06:17;96180.31;;;1.62;100.00
28626;BME280;18905;42.668;23.364;2023-01-25T07:08:42;96170.06;;;1.31;100.00
28626;BME280;18905;42.668;23.364;2023-01-25T07:11:09;96170.28;;;1.41;100.00
28626;BME280;18905;42.668;23.364;2023-01-25T07:13:39;96171.66;;;1.55;100.00
28626;BME280;18905;42.668;23.364;2023-01-25T07:16:07;96184.84;;;1.50;100.00
28626;BME280;18905;42.668;23.364;2023-01-25T07:18:33;96181.19;;;1.40;100.00
28626;BME280;18905;42.668;23.364;2023-01-25T07:21:07;96166.16;;;1.22;100.00
28626;BME280;18905;42.668;23.364;2023-01-25T07:23:32;96178.75;;;1.38;100.00
28626;BME280;18905;42.668;23.364;2023-01-25T07:25:59;96162.13;;;1.20;100.00
28626;BME280;18905;42.668;23.364;2023-01-25T07:28:25;96171.44;;;1.45;100.00
28626;BME280;18905;42.668;23.364;2023-01-25T07:30:51;96156.63;;;1.49;100.00
28626;BME280;18905;42.668;23.364;2023-01-25T07:33:16;96192.75;;;1.85;100.00
28626;BME280;18905;42.668;23.364;2023-01-25T07:35:41;96191.59;;;1.92;100.00
28626;BME280;18905;42.668;23.364;2023-01-25T07:38:07;96182.75;;;1.64;100.00
28626;BME280;18905;42.668;23.364;2023-01-25T07:40:32;96151.00;;;1.23;100.00
28626;BME280;18905;42.668;23.364;2023-01-25T07:42:58;96186.34;;;1.46;100.00
28626;BME280;18905;42.668;23.364;2023-01-25T07:45:23;96197.81;;;1.47;100.00
28626;BME280;18905;42.668;23.364;2023-01-25T07:47:58;96197.81;;;1.47;100.00
28626;BME280;18905;42.668;23.364;2023-01-25T07:50:25;96194.50;;;1.28;100.00
28626;BME280;18905;42.668;23.364;2023-01-25T07:52:51;96205.72;;;1.30;100.00
28626;BME280;18905;42.668;23.364;2023-01-25T07:55:16;96189.38;;;1.50;100.00
28626;BME280;18905;42.668;23.364;2023-01-25T07:57:42;96142.09;;;1.17;100.00
28626;BME280;18905;42.668;23.364;2023-01-25T08:00:08;96202.44;;;1.63;100.00
28626;BME280;18905;42.668;23.364;2023-01-25T08:02:34;96197.38;;;1.38;100.00
28626;BME280;18905;42.668;23.364;2023-01-25T08:05:00;96193.56;;;1.46;100.00
28626;BME280;18905;42.668;23.364;2023-01-25T08:07:27;96191.56;;;1.53;100.00
28626;BME280;18905;42.668;23.364;2023-01-25T08:09:52;96167.72;;;1.46;100.00
28626;BME280;18905;42.668;23.364;2023-01-25T08:12:18;96188.34;;;1.51;100.00
28626;BME280;18905;42.668;23.364;2023-01-25T08:14:44;96164.16;;;1.41;100.00
28626;BME280;18905;42.668;23.364;2023-01-25T08:17:09;96191.19;;;1.61;100.00
28626;BME280;18905;42.668;23.364;2023-01-25T08:19:35;96194.44;;;1.63;100.00
28626;BME280;18905;42.668;23.364;2023-01-25T08:22:00;96186.19;;;1.64;100.00
28626;BME280;18905;42.668;23.364;2023-01-25T08:24:25;96185.09;;;1.60;100.00
28626;BME280;18905;42.668;23.364;2023-01-25T08:26:51;96175.22;;;1.61;100.00
28626;BME280;18905;42.668;23.364;2023-01-25T08:29:16;96188.50;;;1.72;100.00
28626;BME280;18905;42.668;23.364;2023-01-25T08:31:42;96176.44;;;1.81;100.00
28626;BME280;18905;42.668;23.364;2023-01-25T08:34:10;96186.66;;;1.73;100.00
28626;BME280;18905;42.668;23.364;2023-01-25T08:36:36;96194.47;;;1.91;100.00
28626;BME280;18905;42.668;23.364;2023-01-25T08:39:05;96194.72;;;1.89;100.00
28626;BME280;18905;42.668;23.364;2023-01-25T08:41:32;96181.25;;;1.68;100.00
28626;BME280;18905;42.668;23.364;2023-01-25T08:43:58;96131.25;;;1.19;100.00
28626;BME280;18905;42.668;23.364;2023-01-25T08:46:26;96175.22;;;1.61;100.00
28626;BME280;18905;42.668;23.364;2023-01-25T08:48:56;96172.19;;;1.69;100.00
28626;BME280;18905;42.668;23.364;2023-01-25T08:51:22;96148.59;;;1.61;100.00
28626;BME280;18905;42.668;23.364;2023-01-25T08:53:48;96164.19;;;1.80;100.00
28626;BME280;18905;42.668;23.364;2023-01-25T08:56:15;96179.25;;;2.03;100.00
28626;BME280;18905;42.668;23.364;2023-01-25T08:58:43;96162.00;;;1.66;100.00
28626;BME280;18905;42.668;23.364;2023-01-25T09:01:11;96169.63;;;1.74;100.00
28626;BME280;18905;42.668;23.364;2023-01-25T09:03:38;96181.25;;;1.68;100.00
28626;BME280;18905;42.668;23.364;2023-01-25T09:06:05;96184.53;;;1.35;100.00
28626;BME280;18905;42.668;23.364;2023-01-25T09:08:31;96146.25;;;1.25;100.00
28626;BME280;18905;42.668;23.364;2023-01-25T09:11:04;96175.16;;;1.44;100.00
28626;BME280;18905;42.668;23.364;2023-01-25T09:13:30;96172.56;;;1.61;100.00
28626;BME280;18905;42.668;23.364;2023-01-25T09:16:03;96174.19;;;1.62;100.00
28626;BME280;18905;42.668;23.364;2023-01-25T09:18:30;96171.50;;;1.62;100.00
28626;BME280;18905;42.668;23.364;2023-01-25T09:20:55;96131.38;;;1.52;100.00
28626;BME280;18905;42.668;23.364;2023-01-25T09:23:22;96156.69;;;1.66;100.00
28626;BME280;18905;42.668;23.364;2023-01-25T09:25:54;96135.91;;;1.51;100.00
28626;BME280;18905;42.668;23.364;2023-01-25T09:28:20;96153.56;;;1.69;100.00
28626;BME280;18905;42.668;23.364;2023-01-25T09:30:53;96101.44;;;1.45;100.00
28626;BME280;18905;42.668;23.364;2023-01-25T09:33:18;96152.69;;;1.80;100.00
28626;BME280;18905;42.668;23.364;2023-01-25T09:35:47;96146.69;;;1.84;100.00
28626;BME280;18905;42.668;23.364;2023-01-25T09:38:13;96136.88;;;1.73;100.00
28626;BME280;18905;42.668;23.364;2023-01-25T09:40:40;96141.59;;;1.83;100.00
28626;BME280;18905;42.668;23.364;2023-01-25T09:46:16;96131.38;;;2.36;100.00
28626;BME280;18905;42.668;23.364;2023-01-25T09:48:51;96132.06;;;2.15;100.00
28626;BME280;18905;42.668;23.364;2023-01-25T09:51:38;96122.59;;;2.07;100.00
28626;BME280;18905;42.668;23.364;2023-01-25T09:54:09;96125.34;;;2.12;100.00
28626;BME280;18905;42.668;23.364;2023-01-25T09:56:36;96091.47;;;1.96;100.00
28626;BME280;18905;42.668;23.364;2023-01-25T09:59:11;96119.56;;;2.32;100.00
28626;BME280;18905;42.668;23.364;2023-01-25T10:06:41;96096.78;;;2.57;100.00
28626;BME280;18905;42.668;23.364;2023-01-25T10:09:36;96094.84;;;2.53;100.00
28626;BME280;18905;42.668;23.364;2023-01-25T10:12:13;96068.34;;;2.30;100.00
28626;BME280;18905;42.668;23.364;2023-01-25T10:14:39;96064.31;;;2.44;100.00
28626;BME280;18905;42.668;23.364;2023-01-25T10:17:12;96077.03;;;2.75;100.00
28626;BME280;18905;42.668;23.364;2023-01-25T10:19:54;96082.84;;;2.88;100.00
28626;BME280;18905;42.668;23.364;2023-01-25T10:22:30;96069.72;;;3.03;100.00
28626;BME280;18905;42.668;23.364;2023-01-25T10:30:40;96053.75;;;3.08;100.00
28626;BME280;18905;42.668;23.364;2023-01-25T10:33:13;96064.69;;;3.28;100.00
28626;BME280;18905;42.668;23.364;2023-01-25T10:35:43;96057.03;;;2.94;100.00
28626;BME280;18905;42.668;23.364;2023-01-25T10:38:17;96061.41;;;3.21;100.00
28626;BME280;18905;42.668;23.364;2023-01-25T10:40:53;96054.00;;;3.07;100.00
28626;BME280;18905;42.668;23.364;2023-01-25T10:43:21;96035.16;;;2.92;100.00
28626;BME280;18905;42.668;23.364;2023-01-25T10:45:47;96044.03;;;2.81;100.00
28626;BME280;18905;42.668;23.364;2023-01-25T10:48:23;96043.16;;;2.92;100.00
28626;BME280;18905;42.668;23.364;2023-01-25T10:50:51;96017.00;;;2.94;100.00
28626;BME280;18905;42.668;23.364;2023-01-25T10:53:33;96039.53;;;3.24;100.00
28626;BME280;18905;42.668;23.364;2023-01-25T11:01:08;96025.72;;;3.27;100.00
28626;BME280;18905;42.668;23.364;2023-01-25T11:03:42;96017.28;;;3.35;100.00
28626;BME280;18905;42.668;23.364;2023-01-25T11:06:11;96023.09;;;3.59;100.00
28626;BME280;18905;42.668;23.364;2023-01-25T11:08:40;96009.75;;;3.32;100.00
28626;BME280;18905;42.668;23.364;2023-01-25T11:11:22;96008.09;;;3.05;100.00
28626;BME280;18905;42.668;23.364;2023-01-25T11:13:50;95987.63;;;2.89;100.00
28626;BME280;18905;42.668;23.364;2023-01-25T11:16:30;96009.22;;;3.30;100.00
28626;BME280;18905;42.668;23.364;2023-01-25T11:18:57;96015.56;;;3.51;100.00
28626;BME280;18905;42.668;23.364;2023-01-25T11:21:25;95992.22;;;3.68;100.00
28626;BME280;18905;42.668;23.364;2023-01-25T11:23:58;95982.13;;;3.43;100.00
28626;BME280;18905;42.668;23.364;2023-01-25T11:26:24;95997.56;;;3.41;100.00
28626;BME280;18905;42.668;23.364;2023-01-25T11:29:04;95992.41;;;3.35;100.00
28626;BME280;18905;42.668;23.364;2023-01-25T11:31:30;95954.94;;;3.51;100.00
28626;BME280;18905;42.668;23.364;2023-01-25T11:33:55;95986.44;;;3.49;100.00
28626;BME280;18905;42.668;23.364;2023-01-25T11:47:02;95964.78;;;3.46;100.00
28626;BME280;18905;42.668;23.364;2023-01-25T11:50:09;95966.13;;;3.22;100.00
28626;BME280;18905;42.668;23.364;2023-01-25T11:55:25;95958.06;;;3.17;100.00
28626;BME280;18905;42.668;23.364;2023-01-25T12:06:24;95917.09;;;3.28;100.00
28626;BME280;18905;42.668;23.364;2023-01-25T12:12:17;95939.06;;;3.40;100.00
28626;BME280;18905;42.668;23.364;2023-01-25T12:30:48;95924.47;;;2.73;100.00
28626;BME280;18905;42.668;23.364;2023-01-25T12:38:34;95912.91;;;2.89;100.00
28626;BME280;18905;42.668;23.364;2023-01-25T12:43:48;95905.94;;;2.83;100.00
28626;BME280;18905;42.668;23.364;2023-01-25T12:46:30;95904.00;;;2.78;100.00
28626;BME280;18905;42.668;23.364;2023-01-25T12:49:02;95917.31;;;2.78;100.00
28626;BME280;18905;42.668;23.364;2023-01-25T12:51:34;95867.16;;;2.54;100.00
28626;BME280;18905;42.668;23.364;2023-01-25T12:54:06;95915.84;;;4.45;100.00
28626;BME280;18905;42.668;23.364;2023-01-25T12:56:41;95908.09;;;5.10;100.00
28626;BME280;18905;42.668;23.364;2023-01-25T12:59:34;95915.56;;;4.00;100.00
28626;BME280;18905;42.668;23.364;2023-01-25T13:10:34;95876.31;;;3.06;100.00
28626;BME280;18905;42.668;23.364;2023-01-25T13:15:46;95886.69;;;2.81;100.00
28626;BME280;18905;42.668;23.364;2023-01-25T13:20:58;95888.00;;;3.00;100.00
28626;BME280;18905;42.668;23.364;2023-01-25T13:28:53;95849.38;;;2.59;100.00
28626;BME280;18905;42.668;23.364;2023-01-25T13:34:11;95877.78;;;2.49;100.00
28626;BME280;18905;42.668;23.364;2023-01-25T13:44:42;95891.53;;;2.84;100.00
28626;BME280;18905;42.668;23.364;2023-01-25T13:47:14;95874.63;;;2.52;100.00
28626;BME280;18905;42.668;23.364;2023-01-25T13:49:45;95902.56;;;2.71;100.00
28626;BME280;18905;42.668;23.364;2023-01-25T13:52:17;95883.72;;;2.77;100.00
28626;BME280;18905;42.668;23.364;2023-01-25T13:54:44;95896.31;;;2.82;100.00
28626;BME280;18905;42.668;23.364;2023-01-25T13:57:18;95848.50;;;2.54;100.00
28626;BME280;18905;42.668;23.364;2023-01-25T13:59:44;95848.50;;;2.54;100.00
28626;BME280;18905;42.668;23.364;2023-01-25T14:02:18;95899.63;;;2.94;100.00
28626;BME280;18905;42.668;23.364;2023-01-25T14:04:48;95857.22;;;2.44;100.00
28626;BME280;18905;42.668;23.364;2023-01-25T14:07:19;95870.47;;;2.39;100.00
28626;BME280;18905;42.668;23.364;2023-01-25T14:09:47;95899.16;;;2.54;100.00
28626;BME280;18905;42.668;23.364;2023-01-25T14:12:41;95875.63;;;2.24;100.00
28626;BME280;18905;42.668;23.364;2023-01-25T14:15:23;95900.66;;;2.45;100.00
28626;BME280;18905;42.668;23.364;2023-01-25T14:18:17;95890.63;;;2.52;100.00
28626;BME280;18905;42.668;23.364;2023-01-25T14:20:49;95897.88;;;2.56;100.00
28626;BME280;18905;42.668;23.364;2023-01-25T14:23:28;95894.88;;;2.53;100.00
28626;BME280;18905;42.668;23.364;2023-01-25T14:25:55;95875.84;;;2.23;100.00
28626;BME280;18905;42.668;23.364;2023-01-25T14:28:24;95888.88;;;2.41;100.00
28626;BME280;18905;42.668;23.364;2023-01-25T14:30:51;95884.88;;;2.38;100.00
28626;BME280;18905;42.668;23.364;2023-01-25T14:33:25;95874.09;;;2.33;100.00
28626;BME280;18905;42.668;23.364;2023-01-25T14:35:52;95883.28;;;2.42;100.00
28626;BME280;18905;42.668;23.364;2023-01-25T14:38:22;95889.63;;;2.36;100.00
28626;BME280;18905;42.668;23.364;2023-01-25T14:40:49;95868.72;;;2.28;100.00
28626;BME280;18905;42.668;23.364;2023-01-25T14:43:16;95800.25;;;1.86;100.00
28626;BME280;18905;42.668;23.364;2023-01-25T14:45:42;95850.34;;;2.10;100.00